sensor_id;sensor_type;location;lat;lon;timestamp;pressure;altitude;pressure_sealevel;temperature;humidity
86772;BME280;77535;53.424;10.018;2024-03-29T00:02:51;99256.97;;;6.61;82.80
86772;BME280;77535;53.424;10.018;2024-03-29T00:05:16;99271.09;;;6.69;82.77
86772;BME280;77535;53.424;10.018;2024-03-29T00:07:41;99273.72;;;6.69;82.50
86772;BME280;77535;53.424;10.018;2024-03-29T00:10:07;99268.38;;;6.70;82.32
86772;BME280;77535;53.424;10.018;2024-03-29T00:12:32;99268.63;;;6.67;82.34
86772;BME280;77535;53.424;10.018;2024-03-29T00:14:57;99258.84;;;6.50;82.85
86772;BME280;77535;53.424;10.018;2024-03-29T00:17:23;99269.25;;;6.50;83.39
86772;BME280;77535;53.424;10.018;2024-03-29T00:19:48;99272.00;;;6.48;83.40
86772;BME280;77535;53.424;10.018;2024-03-29T00:22:13;99268.56;;;6.48;83.26
86772;BME280;77535;53.424;10.018;2024-03-29T00:24:38;99272.97;;;6.47;83.24
86772;BME280;77535;53.424;10.018;2024-03-29T00:27:04;99265.84;;;6.49;82.96
86772;BME280;77535;53.424;10.018;2024-03-29T00:29:29;99269.53;;;6.47;82.92
86772;BME280;77535;53.424;10.018;2024-03-29T00:31:55;99256.72;;;6.34;83.32
86772;BME280;77535;53.424;10.018;2024-03-29T00:34:20;99260.56;;;6.30;83.77
86772;BME280;77535;53.424;10.018;2024-03-29T00:36:46;99266.53;;;6.21;84.12
86772;BME280;77535;53.424;10.018;2024-03-29T00:39:11;99271.06;;;6.19;84.43
86772;BME280;77535;53.424;10.018;2024-03-29T00:41:37;99268.97;;;6.13;84.60
86772;BME280;77535;53.424;10.018;2024-03-29T00:44:02;99267.34;;;6.12;84.39
86772;BME280;77535;53.424;10.018;2024-03-29T00:46:28;99277.75;;;6.12;84.84
86772;BME280;77535;53.424;10.018;2024-03-29T00:48:53;99270.91;;;6.11;84.71
86772;BME280;77535;53.424;10.018;2024-03-29T00:51:18;99273.03;;;6.05;84.73
86772;BME280;77535;53.424;10.018;2024-03-29T00:53:44;99260.41;;;6.01;84.75
86772;BME280;77535;53.424;10.018;2024-03-29T00:56:09;99261.50;;;5.98;84.88
86772;BME280;77535;53.424;10.018;2024-03-29T00:58:34;99258.66;;;6.01;83.58
86772;BME280;77535;53.424;10.018;2024-03-29T01:00:59;99274.69;;;6.07;84.31
86772;BME280;77535;53.424;10.018;2024-03-29T01:03:25;99271.25;;;6.06;84.39
86772;BME280;77535;53.424;10.018;2024-03-29T01:05:52;99263.16;;;5.99;84.40
86772;BME280;77535;53.424;10.018;2024-03-29T01:08:18;99261.50;;;5.98;84.67
86772;BME280;77535;53.424;10.018;2024-03-29T01:10:44;99265.31;;;5.94;84.35
86772;BME280;77535;53.424;10.018;2024-03-29T01:13:09;99264.25;;;5.97;84.57
86772;BME280;77535;53.424;10.018;2024-03-29T01:15:34;99270.53;;;5.94;84.48
86772;BME280;77535;53.424;10.018;2024-03-29T01:17:59;99269.16;;;5.90;84.82
86772;BME280;77535;53.424;10.018;2024-03-29T01:20:25;99275.63;;;5.85;84.94
86772;BME280;77535;53.424;10.018;2024-03-29T01:22:50;99275.63;;;5.85;85.17
86772;BME280;77535;53.424;10.018;2024-03-29T01:25:15;99275.31;;;5.78;84.98
86772;BME280;77535;53.424;10.018;2024-03-29T01:27:42;99269.91;;;5.70;85.18
86772;BME280;77535;53.424;10.018;2024-03-29T01:30:08;99275.25;;;5.68;85.88
86772;BME280;77535;53.424;10.018;2024-03-29T01:32:33;99277.53;;;5.62;85.44
86772;BME280;77535;53.424;10.018;2024-03-29T01:34:58;99276.03;;;5.59;86.39
86772;BME280;77535;53.424;10.018;2024-03-29T01:37:23;99271.31;;;5.53;86.34
86772;BME280;77535;53.424;10.018;2024-03-29T01:39:49;99280.88;;;5.53;86.30
86772;BME280;77535;53.424;10.018;2024-03-29T01:42:14;99279.50;;;5.49;86.14
86772;BME280;77535;53.424;10.018;2024-03-29T01:44:39;99285.53;;;5.49;86.64
86772;BME280;77535;53.424;10.018;2024-03-29T01:47:05;99285.06;;;5.44;86.79
86772;BME280;77535;53.424;10.018;2024-03-29T01:49:30;99281.91;;;5.40;86.25
86772;BME280;77535;53.424;10.018;2024-03-29T01:51:56;99271.72;;;5.37;86.51
86772;BME280;77535;53.424;10.018;2024-03-29T01:54:21;99281.44;;;5.35;86.45
86772;BME280;77535;53.424;10.018;2024-03-29T01:56:47;99283.34;;;5.33;86.99
86772;BME280;77535;53.424;10.018;2024-03-29T01:59:14;99287.13;;;5.29;86.75
86772;BME280;77535;53.424;10.018;2024-03-29T02:01:41;99287.97;;;5.30;86.70
86772;BME280;77535;53.424;10.018;2024-03-29T02:04:08;99287.13;;;5.29;86.51
86772;BME280;77535;53.424;10.018;2024-03-29T02:06:33;99286.44;;;5.27;87.41
86772;BME280;77535;53.424;10.018;2024-03-29T02:08:58;99276.91;;;5.17;87.13
86772;BME280;77535;53.424;10.018;2024-03-29T02:11:24;99281.28;;;5.16;87.68
86772;BME280;77535;53.424;10.018;2024-03-29T02:13:49;99284.44;;;5.20;87.47
86772;BME280;77535;53.424;10.018;2024-03-29T02:16:15;99289.63;;;5.20;86.81
86772;BME280;77535;53.424;10.018;2024-03-29T02:18:40;99288.81;;;5.19;87.63
86772;BME280;77535;53.424;10.018;2024-03-29T02:21:06;99292.16;;;5.21;86.62
86772;BME280;77535;53.424;10.018;2024-03-29T02:23:32;99276.19;;;5.14;86.71
86772;BME280;77535;53.424;10.018;2024-03-29T02:25:57;99305.00;;;5.23;87.15
86772;BME280;77535;53.424;10.018;2024-03-29T02:28:23;99296.75;;;5.18;86.90
86772;BME280;77535;53.424;10.018;2024-03-29T02:30:52;99313.16;;;5.18;87.25
86772;BME280;77535;53.424;10.018;2024-03-29T02:33:17;99300.78;;;5.10;87.00
86772;BME280;77535;53.424;10.018;2024-03-29T02:35:42;99287.00;;;4.99;87.32
86772;BME280;77535;53.424;10.018;2024-03-29T02:39:08;99290.66;;;4.96;87.92
86772;BME280;77535;53.424;10.018;2024-03-29T02:41:33;99303.16;;;5.02;87.32
86772;BME280;77535;53.424;10.018;2024-03-29T02:43:59;99312.72;;;5.02;87.89
86772;BME280;77535;53.424;10.018;2024-03-29T02:46:24;99310.03;;;5.03;87.17
86772;BME280;77535;53.424;10.018;2024-03-29T02:48:49;99310.84;;;5.04;87.17
86772;BME280;77535;53.424;10.018;2024-03-29T02:51:15;99308.84;;;5.07;86.95
86772;BME280;77535;53.424;10.018;2024-03-29T02:53:40;99303.50;;;5.09;86.75
86772;BME280;77535;53.424;10.018;2024-03-29T02:56:05;99306.56;;;5.14;86.42
86772;BME280;77535;53.424;10.018;2024-03-29T02:58:33;99310.56;;;5.18;86.98
86772;BME280;77535;53.424;10.018;2024-03-29T03:01:05;99294.25;;;5.16;86.99
86772;BME280;77535;53.424;10.018;2024-03-29T03:03:30;99302.31;;;5.13;86.22
86772;BME280;77535;53.424;10.018;2024-03-29T03:05:56;99294.31;;;5.05;87.03
86772;BME280;77535;53.424;10.018;2024-03-29T03:08:21;99303.16;;;5.02;87.34
86772;BME280;77535;53.424;10.018;2024-03-29T03:11:05;99287.38;;;4.94;86.83
86772;BME280;77535;53.424;10.018;2024-03-29T03:13:30;99287.25;;;4.96;87.01
86772;BME280;77535;53.424;10.018;2024-03-29T03:15:56;99288.19;;;4.95;87.10
86772;BME280;77535;53.424;10.018;2024-03-29T03:18:21;99282.41;;;4.91;87.35
86772;BME280;77535;53.424;10.018;2024-03-29T03:20:53;99283.69;;;4.97;87.53
86772;BME280;77535;53.424;10.018;2024-03-29T03:23:19;99280.97;;;4.98;87.50
86772;BME280;77535;53.424;10.018;2024-03-29T03:25:46;99272.72;;;4.93;87.13
86772;BME280;77535;53.424;10.018;2024-03-29T03:28:11;99282.03;;;5.07;87.10
86772;BME280;77535;53.424;10.018;2024-03-29T03:30:59;99268.53;;;5.13;86.10
86772;BME280;77535;53.424;10.018;2024-03-29T03:33:24;99276.19;;;5.14;86.31
86772;BME280;77535;53.424;10.018;2024-03-29T03:35:49;99274.31;;;5.17;86.34
86772;BME280;77535;53.424;10.018;2024-03-29T03:38:15;99274.31;;;5.17;86.18
86772;BME280;77535;53.424;10.018;2024-03-29T03:40:40;99271.59;;;5.18;85.43
86772;BME280;77535;53.424;10.018;2024-03-29T03:43:06;99278.66;;;5.27;85.54
86772;BME280;77535;53.424;10.018;2024-03-29T03:45:36;99293.03;;;5.31;84.61
86772;BME280;77535;53.424;10.018;2024-03-29T03:48:10;99305.34;;;5.29;85.83
86772;BME280;77535;53.424;10.018;2024-03-29T03:50:37;99295.63;;;5.31;84.71
86772;BME280;77535;53.424;10.018;2024-03-29T03:53:03;99303.06;;;5.36;84.57
86772;BME280;77535;53.424;10.018;2024-03-29T03:55:28;99289.59;;;5.42;84.33
86772;BME280;77535;53.424;10.018;2024-03-29T03:57:54;99280.69;;;5.44;84.32
86772;BME280;77535;53.424;10.018;2024-03-29T04:00:20;99284.00;;;5.47;83.74
86772;BME280;77535;53.424;10.018;2024-03-29T04:02:52;99282.72;;;5.41;83.70
86772;BME280;77535;53.424;10.018;2024-03-29T04:05:20;99296.75;;;5.50;83.90
86772;BME280;77535;53.424;10.018;2024-03-29T04:07:46;99297.09;;;5.56;83.66
86772;BME280;77535;53.424;10.018;2024-03-29T04:10:11;99292.59;;;5.58;83.17
86772;BME280;77535;53.424;10.018;2024-03-29T04:12:37;99287.56;;;5.66;82.47
86772;BME280;77535;53.424;10.018;2024-03-29T04:15:03;99269.22;;;5.68;82.60
86772;BME280;77535;53.424;10.018;2024-03-29T04:17:31;99285.78;;;5.67;82.61
86772;BME280;77535;53.424;10.018;2024-03-29T04:19:57;99274.50;;;5.57;82.75
86772;BME280;77535;53.424;10.018;2024-03-29T04:22:23;99296.06;;;5.68;82.78
86772;BME280;77535;53.424;10.018;2024-03-29T04:24:49;99293.09;;;5.73;81.98
86772;BME280;77535;53.424;10.018;2024-03-29T04:27:14;99281.63;;;5.75;82.45
86772;BME280;77535;53.424;10.018;2024-03-29T04:29:39;99282.84;;;5.92;81.07
86772;BME280;77535;53.424;10.018;2024-03-29T04:32:04;99285.06;;;5.97;81.11
86772;BME280;77535;53.424;10.018;2024-03-29T04:34:30;99284.63;;;5.92;81.02
86772;BME280;77535;53.424;10.018;2024-03-29T04:36:55;99290.16;;;5.87;81.61
86772;BME280;77535;53.424;10.018;2024-03-29T04:39:20;99290.16;;;5.87;81.29
86772;BME280;77535;53.424;10.018;2024-03-29T04:41:45;99265.69;;;5.69;81.59
86772;BME280;77535;53.424;10.018;2024-03-29T04:44:13;99290.16;;;5.87;81.68
86772;BME280;77535;53.424;10.018;2024-03-29T04:46:38;99280.41;;;6.00;80.86
86772;BME280;77535;53.424;10.018;2024-03-29T04:49:04;99293.03;;;6.05;80.71
86772;BME280;77535;53.424;10.018;2024-03-29T04:51:29;99305.59;;;6.00;80.74
86772;BME280;77535;53.424;10.018;2024-03-29T04:53:54;99305.88;;;5.97;81.22
86772;BME280;77535;53.424;10.018;2024-03-29T04:56:19;99304.63;;;5.91;81.38
86772;BME280;77535;53.424;10.018;2024-03-29T04:58:45;99309.56;;;5.94;81.30
86772;BME280;77535;53.424;10.018;2024-03-29T05:01:11;99313.25;;;5.92;82.09
86772;BME280;77535;53.424;10.018;2024-03-29T05:03:36;99329.41;;;5.95;81.42
86772;BME280;77535;53.424;10.018;2024-03-29T05:06:01;99325.88;;;5.96;81.17
86772;BME280;77535;53.424;10.018;2024-03-29T05:08:27;99331.50;;;6.01;81.01
86772;BME280;77535;53.424;10.018;2024-03-29T05:10:52;99329.22;;;6.08;80.49
86772;BME280;77535;53.424;10.018;2024-03-29T05:13:18;99324.84;;;6.09;80.48
86772;BME280;77535;53.424;10.018;2024-03-29T05:15:49;99328.16;;;6.11;80.46
86772;BME280;77535;53.424;10.018;2024-03-29T05:18:14;99324.06;;;6.18;79.70
86772;BME280;77535;53.424;10.018;2024-03-29T05:20:40;99330.09;;;6.18;79.90
86772;BME280;77535;53.424;10.018;2024-03-29T05:23:06;99340.38;;;6.20;80.12
86772;BME280;77535;53.424;10.018;2024-03-29T05:25:32;99326.88;;;6.26;79.00
86772;BME280;77535;53.424;10.018;2024-03-29T05:27:57;99321.13;;;6.32;79.47
86772;BME280;77535;53.424;10.018;2024-03-29T05:30:22;99323.03;;;6.30;79.77
86772;BME280;77535;53.424;10.018;2024-03-29T05:32:49;99331.81;;;6.29;80.12
86772;BME280;77535;53.424;10.018;2024-03-29T05:35:14;99332.16;;;6.24;80.26
86772;BME280;77535;53.424;10.018;2024-03-29T05:37:40;99354.31;;;6.40;79.74
86772;BME280;77535;53.424;10.018;2024-03-29T05:40:06;99357.63;;;6.42;78.82
86772;BME280;77535;53.424;10.018;2024-03-29T05:42:33;99348.75;;;6.44;79.14
86772;BME280;77535;53.424;10.018;2024-03-29T05:44:59;99359.84;;;6.46;78.76
86772;BME280;77535;53.424;10.018;2024-03-29T05:47:25;99366.00;;;6.45;79.33
86772;BME280;77535;53.424;10.018;2024-03-29T05:49:50;99373.25;;;6.42;79.47
86772;BME280;77535;53.424;10.018;2024-03-29T05:52:16;99366.72;;;6.47;79.01
86772;BME280;77535;53.424;10.018;2024-03-29T05:54:43;99353.69;;;6.47;79.40
86772;BME280;77535;53.424;10.018;2024-03-29T05:57:08;99348.47;;;6.47;78.91
86772;BME280;77535;53.424;10.018;2024-03-29T06:01:06;99358.38;;;6.53;79.43
86772;BME280;77535;53.424;10.018;2024-03-29T06:03:31;99356.16;;;6.49;79.69
86772;BME280;77535;53.424;10.018;2024-03-29T06:05:56;99361.28;;;6.60;78.69
86772;BME280;77535;53.424;10.018;2024-03-29T06:08:22;99356.09;;;6.70;77.90
86772;BME280;77535;53.424;10.018;2024-03-29T06:10:49;99367.41;;;6.80;77.78
86772;BME280;77535;53.424;10.018;2024-03-29T06:13:14;99372.47;;;6.81;77.84
86772;BME280;77535;53.424;10.018;2024-03-29T06:15:54;99368.78;;;6.84;78.05
86772;BME280;77535;53.424;10.018;2024-03-29T06:19:38;99372.22;;;6.94;77.40
86772;BME280;77535;53.424;10.018;2024-03-29T06:22:03;99377.06;;;6.99;77.17
86772;BME280;77535;53.424;10.018;2024-03-29T06:24:29;99385.44;;;7.02;77.00
86772;BME280;77535;53.424;10.018;2024-03-29T06:26:56;99385.31;;;7.04;77.48
86772;BME280;77535;53.424;10.018;2024-03-29T06:29:21;99389.41;;;7.06;77.34
86772;BME280;77535;53.424;10.018;2024-03-29T06:31:46;99396.00;;;7.10;77.16
86772;BME280;77535;53.424;10.018;2024-03-29T06:34:11;99394.13;;;7.22;75.88
86772;BME280;77535;53.424;10.018;2024-03-29T06:36:37;99393.59;;;7.28;76.35
86772;BME280;77535;53.424;10.018;2024-03-29T06:39:03;99383.88;;;7.30;75.79
86772;BME280;77535;53.424;10.018;2024-03-29T06:41:29;99393.91;;;7.35;75.84
86772;BME280;77535;53.424;10.018;2024-03-29T06:43:54;99385.53;;;7.41;75.88
86772;BME280;77535;53.424;10.018;2024-03-29T06:46:19;99391.88;;;7.48;74.89
86772;BME280;77535;53.424;10.018;2024-03-29T06:49:19;99390.63;;;7.52;76.07
86772;BME280;77535;53.424;10.018;2024-03-29T06:51:45;99389.00;;;7.51;75.63
86772;BME280;77535;53.424;10.018;2024-03-29T06:54:10;99398.59;;;7.60;75.06
86772;BME280;77535;53.424;10.018;2024-03-29T06:56:35;99395.31;;;7.68;74.88
86772;BME280;77535;53.424;10.018;2024-03-29T06:59:01;99393.13;;;7.73;74.96
86772;BME280;77535;53.424;10.018;2024-03-29T07:01:26;99395.59;;;7.74;74.58
86772;BME280;77535;53.424;10.018;2024-03-29T07:03:51;99367.03;;;7.73;75.00
86772;BME280;77535;53.424;10.018;2024-03-29T07:06:16;99385.56;;;7.89;75.01
86772;BME280;77535;53.424;10.018;2024-03-29T07:08:42;99400.53;;;7.97;73.63
86772;BME280;77535;53.424;10.018;2024-03-29T07:11:07;99390.91;;;7.97;73.10
86772;BME280;77535;53.424;10.018;2024-03-29T07:13:32;99412.63;;;8.17;72.60
86772;BME280;77535;53.424;10.018;2024-03-29T07:16:01;99394.88;;;8.21;73.03
86772;BME280;77535;53.424;10.018;2024-03-29T07:18:27;99389.91;;;8.27;73.17
86772;BME280;77535;53.424;10.018;2024-03-29T07:20:53;99399.56;;;8.36;72.98
86772;BME280;77535;53.424;10.018;2024-03-29T07:23:18;99402.88;;;8.38;72.60
86772;BME280;77535;53.424;10.018;2024-03-29T07:27:15;99410.94;;;8.55;71.57
86772;BME280;77535;53.424;10.018;2024-03-29T07:29:42;99409.78;;;8.67;71.58
86772;BME280;77535;53.424;10.018;2024-03-29T07:32:09;99394.22;;;8.75;70.20
86772;BME280;77535;53.424;10.018;2024-03-29T07:34:34;99402.09;;;9.02;68.85
86772;BME280;77535;53.424;10.018;2024-03-29T07:36:59;99405.78;;;9.10;69.54
86772;BME280;77535;53.424;10.018;2024-03-29T07:39:25;99404.22;;;9.17;69.14
86772;BME280;77535;53.424;10.018;2024-03-29T07:41:50;99424.44;;;9.24;69.13
86772;BME280;77535;53.424;10.018;2024-03-29T07:44:15;99422.34;;;9.28;68.99
86772;BME280;77535;53.424;10.018;2024-03-29T07:46:40;99413.59;;;9.37;68.53
86772;BME280;77535;53.424;10.018;2024-03-29T07:49:06;99412.38;;;9.41;68.88
86772;BME280;77535;53.424;10.018;2024-03-29T07:51:32;99422.59;;;9.52;69.15
86772;BME280;77535;53.424;10.018;2024-03-29T07:53:58;99435.78;;;9.60;68.54
86772;BME280;77535;53.424;10.018;2024-03-29T07:56:24;99433.56;;;9.65;69.09
86772;BME280;77535;53.424;10.018;2024-03-29T07:58:52;99415.59;;;9.71;69.57
86772;BME280;77535;53.424;10.018;2024-03-29T08:01:18;99421.22;;;9.76;68.83
86772;BME280;77535;53.424;10.018;2024-03-29T08:03:44;99435.59;;;9.89;68.78
86772;BME280;77535;53.424;10.018;2024-03-29T08:06:09;99442.75;;;9.87;69.03
86772;BME280;77535;53.424;10.018;2024-03-29T08:08:35;99444.94;;;9.92;68.79
86772;BME280;77535;53.424;10.018;2024-03-29T08:11:00;99434.53;;;9.82;69.14
86772;BME280;77535;53.424;10.018;2024-03-29T08:13:26;99440.38;;;9.76;70.65
86772;BME280;77535;53.424;10.018;2024-03-29T08:16:01;99459.53;;;9.94;70.70
86772;BME280;77535;53.424;10.018;2024-03-29T08:18:27;99455.63;;;9.98;70.24
86772;BME280;77535;53.424;10.018;2024-03-29T08:20:53;99459.03;;;10.09;70.83
86772;BME280;77535;53.424;10.018;2024-03-29T08:23:22;99457.59;;;10.14;71.61
86772;BME280;77535;53.424;10.018;2024-03-29T08:25:47;99451.72;;;10.20;71.02
86772;BME280;77535;53.424;10.018;2024-03-29T08:28:14;99466.25;;;10.24;71.64
86772;BME280;77535;53.424;10.018;2024-03-29T08:30:39;99458.22;;;10.26;71.37
86772;BME280;77535;53.424;10.018;2024-03-29T08:33:04;99446.91;;;10.25;72.45
86772;BME280;77535;53.424;10.018;2024-03-29T08:35:31;99442.84;;;10.31;71.85
86772;BME280;77535;53.424;10.018;2024-03-29T08:37:56;99416.66;;;10.31;73.36
86772;BME280;77535;53.424;10.018;2024-03-29T08:40:22;99395.50;;;10.24;73.65
86772;BME280;77535;53.424;10.018;2024-03-29T08:42:47;99395.50;;;10.24;74.18
86772;BME280;77535;53.424;10.018;2024-03-29T08:47:14;99407.00;;;10.32;73.24
86772;BME280;77535;53.424;10.018;2024-03-29T08:49:39;99401.91;;;10.30;73.58
86772;BME280;77535;53.424;10.018;2024-03-29T08:52:05;99403.41;;;10.33;72.17
86772;BME280;77535;53.424;10.018;2024-03-29T08:54:31;99399.59;;;10.27;73.23
86772;BME280;77535;53.424;10.018;2024-03-29T08:56:56;99391.63;;;10.37;72.43
86772;BME280;77535;53.424;10.018;2024-03-29T08:59:22;99383.91;;;10.35;73.99
86772;BME280;77535;53.424;10.018;2024-03-29T09:01:47;99371.63;;;10.36;72.95
86772;BME280;77535;53.424;10.018;2024-03-29T09:04:14;99378.69;;;10.35;73.07
86772;BME280;77535;53.424;10.018;2024-03-29T09:06:40;99384.03;;;10.25;74.00
86772;BME280;77535;53.424;10.018;2024-03-29T09:09:06;99392.59;;;10.18;74.79
86772;BME280;77535;53.424;10.018;2024-03-29T09:11:32;99392.09;;;10.14;75.05
86772;BME280;77535;53.424;10.018;2024-03-29T09:13:57;99399.44;;;10.11;74.27
86772;BME280;77535;53.424;10.018;2024-03-29T09:16:26;99394.94;;;10.03;74.45
86772;BME280;77535;53.424;10.018;2024-03-29T09:18:51;99390.00;;;10.00;74.33
86772;BME280;77535;53.424;10.018;2024-03-29T09:21:17;99391.66;;;10.01;74.83
86772;BME280;77535;53.424;10.018;2024-03-29T09:23:45;99391.75;;;9.91;75.16
86772;BME280;77535;53.424;10.018;2024-03-29T09:26:11;99387.41;;;9.82;75.75
86772;BME280;77535;53.424;10.018;2024-03-29T09:28:37;99387.34;;;9.74;76.59
86772;BME280;77535;53.424;10.018;2024-03-29T09:31:02;99387.78;;;9.70;77.12
86772;BME280;77535;53.424;10.018;2024-03-29T09:33:28;99383.50;;;9.68;76.37
86772;BME280;77535;53.424;10.018;2024-03-29T09:35:54;99381.56;;;9.71;76.37
86772;BME280;77535;53.424;10.018;2024-03-29T09:38:19;99392.44;;;9.76;76.84
86772;BME280;77535;53.424;10.018;2024-03-29T09:40:45;99390.47;;;9.78;77.03
86772;BME280;77535;53.424;10.018;2024-03-29T09:43:11;99378.88;;;9.80;77.40
86772;BME280;77535;53.424;10.018;2024-03-29T09:45:39;99366.53;;;9.90;76.77
86772;BME280;77535;53.424;10.018;2024-03-29T09:48:07;99363.94;;;9.90;76.85
86772;BME280;77535;53.424;10.018;2024-03-29T09:50:36;99379.03;;;9.96;76.98
86772;BME280;77535;53.424;10.018;2024-03-29T09:53:04;99365.09;;;9.96;76.49
86772;BME280;77535;53.424;10.018;2024-03-29T09:55:30;99376.25;;;9.98;77.28
86772;BME280;77535;53.424;10.018;2024-03-29T09:57:55;99362.19;;;9.99;77.30
86772;BME280;77535;53.424;10.018;2024-03-29T10:00:22;99356.94;;;9.99;76.70
86772;BME280;77535;53.424;10.018;2024-03-29T10:02:49;99361.06;;;10.02;76.70
86772;BME280;77535;53.424;10.018;2024-03-29T10:05:15;99342.56;;;10.03;76.68
86772;BME280;77535;53.424;10.018;2024-03-29T10:07:42;99338.25;;;10.20;75.79
86772;BME280;77535;53.424;10.018;2024-03-29T10:10:09;99343.44;;;10.30;75.30
86772;BME280;77535;53.424;10.018;2024-03-29T10:12:35;99329.19;;;10.32;75.05
86772;BME280;77535;53.424;10.018;2024-03-29T10:15:03;99341.34;;;10.33;75.15
86772;BME280;77535;53.424;10.018;2024-03-29T10:17:34;99332.34;;;10.36;75.20
86772;BME280;77535;53.424;10.018;2024-03-29T10:20:03;99337.88;;;10.33;75.22
86772;BME280;77535;53.424;10.018;2024-03-29T10:22:29;99327.59;;;10.39;74.44
86772;BME280;77535;53.424;10.018;2024-03-29T10:24:57;99327.31;;;10.42;75.62
86772;BME280;77535;53.424;10.018;2024-03-29T10:27:25;99326.53;;;10.50;74.26
86772;BME280;77535;53.424;10.018;2024-03-29T10:29:53;99317.34;;;10.46;74.68
86772;BME280;77535;53.424;10.018;2024-03-29T10:32:18;99323.72;;;10.43;75.53
86772;BME280;77535;53.424;10.018;2024-03-29T10:35:08;99336.69;;;10.53;74.85
86772;BME280;77535;53.424;10.018;2024-03-29T10:37:34;99332.94;;;10.55;74.77
86772;BME280;77535;53.424;10.018;2024-03-29T10:40:07;99325.53;;;10.51;74.84
86772;BME280;77535;53.424;10.018;2024-03-29T10:42:33;99323.56;;;10.53;74.68
86772;BME280;77535;53.424;10.018;2024-03-29T10:44:59;99335.72;;;10.54;75.32
86772;BME280;77535;53.424;10.018;2024-03-29T10:47:25;99332.09;;;10.55;75.18
86772;BME280;77535;53.424;10.018;2024-03-29T10:49:51;99343.94;;;10.59;75.16
86772;BME280;77535;53.424;10.018;2024-03-29T10:52:17;99342.81;;;10.62;74.67
86772;BME280;77535;53.424;10.018;2024-03-29T10:54:44;99328.91;;;10.69;75.00
86772;BME280;77535;53.424;10.018;2024-03-29T10:57:23;99331.56;;;10.77;74.58
86772;BME280;77535;53.424;10.018;2024-03-29T11:00:11;99328.16;;;10.85;74.78
86772;BME280;77535;53.424;10.018;2024-03-29T11:05:27;99334.97;;;11.12;73.82
86772;BME280;77535;53.424;10.018;2024-03-29T11:07:54;99335.97;;;11.11;73.11
86772;BME280;77535;53.424;10.018;2024-03-29T11:10:26;99342.84;;;11.20;73.10
86772;BME280;77535;53.424;10.018;2024-03-29T11:13:01;99348.75;;;11.22;72.77
86772;BME280;77535;53.424;10.018;2024-03-29T11:15:30;99351.88;;;11.17;73.40
86772;BME280;77535;53.424;10.018;2024-03-29T11:17:57;99350.41;;;11.15;73.92
86772;BME280;77535;53.424;10.018;2024-03-29T11:20:26;99338.59;;;11.11;74.19
86772;BME280;77535;53.424;10.018;2024-03-29T11:23:11;99354.66;;;11.24;73.51
86772;BME280;77535;53.424;10.018;2024-03-29T11:25:44;99342.56;;;11.31;73.34
86772;BME280;77535;53.424;10.018;2024-03-29T11:28:14;99343.88;;;11.43;72.81
86772;BME280;77535;53.424;10.018;2024-03-29T11:30:45;99344.25;;;11.57;73.34
86772;BME280;77535;53.424;10.018;2024-03-29T11:33:45;99353.13;;;11.72;72.45
86772;BME280;77535;53.424;10.018;2024-03-29T11:38:38;99348.88;;;11.95;71.44
86772;BME280;77535;53.424;10.018;2024-03-29T11:41:11;99365.31;;;12.05;72.37
86772;BME280;77535;53.424;10.018;2024-03-29T11:43:37;99349.22;;;12.08;70.86
86772;BME280;77535;53.424;10.018;2024-03-29T11:46:06;99354.47;;;12.08;71.10
86772;BME280;77535;53.424;10.018;2024-03-29T11:48:31;99360.19;;;12.12;71.30
86772;BME280;77535;53.424;10.018;2024-03-29T11:50:57;99356.09;;;12.10;70.64
86772;BME280;77535;53.424;10.018;2024-03-29T11:53:23;99338.34;;;12.12;71.64
86772;BME280;77535;53.424;10.018;2024-03-29T11:55:49;99330.47;;;12.20;70.93
86772;BME280;77535;53.424;10.018;2024-03-29T11:58:22;99347.72;;;12.14;71.90
86772;BME280;77535;53.424;10.018;2024-03-29T12:00:47;99341.97;;;12.11;70.75
86772;BME280;77535;53.424;10.018;2024-03-29T12:03:17;99341.81;;;12.20;71.13
86772;BME280;77535;53.424;10.018;2024-03-29T12:05:43;99346.72;;;12.23;71.17
86772;BME280;77535;53.424;10.018;2024-03-29T12:08:09;99348.69;;;12.37;70.38
86772;BME280;77535;53.424;10.018;2024-03-29T12:10:36;99350.13;;;12.48;69.82
86772;BME280;77535;53.424;10.018;2024-03-29T12:13:02;99354.47;;;12.80;69.79
86772;BME280;77535;53.424;10.018;2024-03-29T12:15:28;99340.00;;;13.15;69.31
86772;BME280;77535;53.424;10.018;2024-03-29T12:17:58;99329.09;;;13.57;66.50
86772;BME280;77535;53.424;10.018;2024-03-29T12:20:24;99328.75;;;13.98;65.57
86772;BME280;77535;53.424;10.018;2024-03-29T12:22:49;99343.25;;;14.17;66.23
86772;BME280;77535;53.424;10.018;2024-03-29T12:25:15;99337.63;;;14.20;64.80
86772;BME280;77535;53.424;10.018;2024-03-29T12:27:43;99341.25;;;14.19;64.74
86772;BME280;77535;53.424;10.018;2024-03-29T12:30:12;99330.25;;;14.15;65.16
86772;BME280;77535;53.424;10.018;2024-03-29T12:32:38;99327.72;;;14.07;65.42
86772;BME280;77535;53.424;10.018;2024-03-29T12:35:10;99345.34;;;14.07;65.34
86772;BME280;77535;53.424;10.018;2024-03-29T12:37:36;99354.63;;;14.17;66.16
86772;BME280;77535;53.424;10.018;2024-03-29T12:40:03;99355.81;;;14.15;65.58
86772;BME280;77535;53.424;10.018;2024-03-29T12:42:37;99368.13;;;14.00;65.65
86772;BME280;77535;53.424;10.018;2024-03-29T12:45:03;99360.16;;;13.85;66.12
86772;BME280;77535;53.424;10.018;2024-03-29T12:47:29;99368.38;;;13.90;65.87
86772;BME280;77535;53.424;10.018;2024-03-29T12:49:55;99383.03;;;13.93;66.27
86772;BME280;77535;53.424;10.018;2024-03-29T12:52:20;99367.84;;;13.95;66.37
86772;BME280;77535;53.424;10.018;2024-03-29T12:54:46;99358.84;;;14.04;65.40
86772;BME280;77535;53.424;10.018;2024-03-29T12:57:11;99351.63;;;14.06;64.75
86772;BME280;77535;53.424;10.018;2024-03-29T12:59:36;99350.63;;;14.07;65.14
86772;BME280;77535;53.424;10.018;2024-03-29T13:02:02;99361.66;;;14.02;65.64
86772;BME280;77535;53.424;10.018;2024-03-29T13:04:29;99363.78;;;14.07;65.04
86772;BME280;77535;53.424;10.018;2024-03-29T13:06:55;99372.34;;;14.09;65.55
86772;BME280;77535;53.424;10.018;2024-03-29T13:09:20;99362.97;;;14.06;65.68